sensor_id;sensor_type;location;lat;lon;timestamp;temperature;humidity
66102;HTU21D;52883;51.094;5.880;2023-03-12T00:01:24;2.64;118.99
66102;HTU21D;52883;51.094;5.880;2023-03-12T00:03:52;2.62;118.99
66102;HTU21D;52883;51.094;5.880;2023-03-12T00:06:19;2.60;118.99
66102;HTU21D;52883;51.094;5.880;2023-03-12T00:08:46;2.57;118.99
66102;HTU21D;52883;51.094;5.880;2023-03-12T00:11:16;2.57;118.99
66102;HTU21D;52883;51.094;5.880;2023-03-12T00:13:43;2.57;118.99
66102;HTU21D;52883;51.094;5.880;2023-03-12T00:16:13;2.59;118.99
66102;HTU21D;52883;51.094;5.880;2023-03-12T00:18:40;2.62;118.99
66102;HTU21D;52883;51.094;5.880;2023-03-12T00:21:07;2.65;118.99
66102;HTU21D;52883;51.094;5.880;2023-03-12T00:23:34;2.64;118.99
66102;HTU21D;52883;51.094;5.880;2023-03-12T00:26:02;2.67;118.99
66102;HTU21D;52883;51.094;5.880;2023-03-12T00:28:29;2.69;118.99
66102;HTU21D;52883;51.094;5.880;2023-03-12T00:30:54;2.68;118.99
66102;HTU21D;52883;51.094;5.880;2023-03-12T00:33:20;2.69;118.99
66102;HTU21D;52883;51.094;5.880;2023-03-12T00:35:46;2.66;118.99
66102;HTU21D;52883;51.094;5.880;2023-03-12T00:38:11;2.67;118.99
66102;HTU21D;52883;51.094;5.880;2023-03-12T00:40:37;2.65;118.99
66102;HTU21D;52883;51.094;5.880;2023-03-12T00:43:03;2.68;118.99
66102;HTU21D;52883;51.094;5.880;2023-03-12T00:45:29;2.69;118.99
66102;HTU21D;52883;51.094;5.880;2023-03-12T00:47:55;2.71;118.99
66102;HTU21D;52883;51.094;5.880;2023-03-12T00:50:20;2.73;118.99
66102;HTU21D;52883;51.094;5.880;2023-03-12T00:52:46;2.74;118.99
66102;HTU21D;52883;51.094;5.880;2023-03-12T00:55:13;2.79;118.99
66102;HTU21D;52883;51.094;5.880;2023-03-12T00:57:38;2.81;118.99
66102;HTU21D;52883;51.094;5.880;2023-03-12T01:00:04;2.84;118.99
66102;HTU21D;52883;51.094;5.880;2023-03-12T01:02:37;2.86;118.99
66102;HTU21D;52883;51.094;5.880;2023-03-12T01:05:05;2.87;118.99
66102;HTU21D;52883;51.094;5.880;2023-03-12T01:07:31;2.88;118.99
66102;HTU21D;52883;51.094;5.880;2023-03-12T01:09:58;2.90;118.99
66102;HTU21D;52883;51.094;5.880;2023-03-12T01:12:23;2.94;118.99
66102;HTU21D;52883;51.094;5.880;2023-03-12T01:14:49;2.97;118.99
66102;HTU21D;52883;51.094;5.880;2023-03-12T01:17:14;3.00;118.99
66102;HTU21D;52883;51.094;5.880;2023-03-12T01:19:40;3.02;118.99
66102;HTU21D;52883;51.094;5.880;2023-03-12T01:22:06;3.01;118.99
66102;HTU21D;52883;51.094;5.880;2023-03-12T01:24:31;3.03;118.99
66102;HTU21D;52883;51.094;5.880;2023-03-12T01:26:57;3.04;118.99
66102;HTU21D;52883;51.094;5.880;2023-03-12T01:29:23;3.03;118.99
66102;HTU21D;52883;51.094;5.880;2023-03-12T01:31:48;3.03;118.99
66102;HTU21D;52883;51.094;5.880;2023-03-12T01:34:14;3.03;118.99
66102;HTU21D;52883;51.094;5.880;2023-03-12T01:36:40;3.02;118.99
66102;HTU21D;52883;51.094;5.880;2023-03-12T01:39:06;3.04;118.99
66102;HTU21D;52883;51.094;5.880;2023-03-12T01:41:32;3.04;118.99
66102;HTU21D;52883;51.094;5.880;2023-03-12T01:44:00;3.02;118.99
66102;HTU21D;52883;51.094;5.880;2023-03-12T01:46:29;3.02;118.99
66102;HTU21D;52883;51.094;5.880;2023-03-12T01:48:57;3.01;118.99
66102;HTU21D;52883;51.094;5.880;2023-03-12T01:51:27;3.01;118.99
66102;HTU21D;52883;51.094;5.880;2023-03-12T01:54:01;2.97;118.99
66102;HTU21D;52883;51.094;5.880;2023-03-12T01:56:33;2.94;118.99
66102;HTU21D;52883;51.094;5.880;2023-03-12T01:59:08;2.91;118.99
66102;HTU21D;52883;51.094;5.880;2023-03-12T02:01:36;2.91;118.99
66102;HTU21D;52883;51.094;5.880;2023-03-12T02:04:02;2.93;118.99
66102;HTU21D;52883;51.094;5.880;2023-03-12T02:06:41;2.94;118.99
66102;HTU21D;52883;51.094;5.880;2023-03-12T02:09:08;2.97;118.99
66102;HTU21D;52883;51.094;5.880;2023-03-12T02:11:34;2.95;118.99
66102;HTU21D;52883;51.094;5.880;2023-03-12T02:14:00;2.96;118.99
66102;HTU21D;52883;51.094;5.880;2023-03-12T02:16:26;2.95;118.99
66102;HTU21D;52883;51.094;5.880;2023-03-12T02:18:55;2.98;118.99
66102;HTU21D;52883;51.094;5.880;2023-03-12T02:21:24;3.02;118.99
66102;HTU21D;52883;51.094;5.880;2023-03-12T02:26:45;3.16;118.99
66102;HTU21D;52883;51.094;5.880;2023-03-12T02:29:11;3.19;118.99
66102;HTU21D;52883;51.094;5.880;2023-03-12T02:31:49;3.24;118.99
66102;HTU21D;52883;51.094;5.880;2023-03-12T02:34:16;3.29;118.99
66102;HTU21D;52883;51.094;5.880;2023-03-12T02:36:41;3.35;118.99
66102;HTU21D;52883;51.094;5.880;2023-03-12T02:39:11;3.43;118.99
66102;HTU21D;52883;51.094;5.880;2023-03-12T02:41:42;3.47;118.99
66102;HTU21D;52883;51.094;5.880;2023-03-12T02:44:16;3.48;118.99
66102;HTU21D;52883;51.094;5.880;2023-03-12T02:46:46;3.52;118.99
66102;HTU21D;52883;51.094;5.880;2023-03-12T02:49:14;3.52;118.99
66102;HTU21D;52883;51.094;5.880;2023-03-12T02:51:41;3.53;118.99
66102;HTU21D;52883;51.094;5.880;2023-03-12T02:54:08;3.55;118.99
66102;HTU21D;52883;51.094;5.880;2023-03-12T02:56:34;3.57;118.99
66102;HTU21D;52883;51.094;5.880;2023-03-12T02:59:00;3.59;118.99
66102;HTU21D;52883;51.094;5.880;2023-03-12T03:01:26;3.61;118.99
66102;HTU21D;52883;51.094;5.880;2023-03-12T03:03:53;3.63;118.99
66102;HTU21D;52883;51.094;5.880;2023-03-12T03:06:19;3.65;118.99
66102;HTU21D;52883;51.094;5.880;2023-03-12T03:08:45;3.69;118.99
66102;HTU21D;52883;51.094;5.880;2023-03-12T03:11:12;3.70;118.99
66102;HTU21D;52883;51.094;5.880;2023-03-12T03:13:38;3.74;118.99
66102;HTU21D;52883;51.094;5.880;2023-03-12T03:16:04;3.76;118.99
66102;HTU21D;52883;51.094;5.880;2023-03-12T03:18:31;3.76;118.99
66102;HTU21D;52883;51.094;5.880;2023-03-12T03:21:00;3.80;118.99
66102;HTU21D;52883;51.094;5.880;2023-03-12T03:23:27;3.82;118.99
66102;HTU21D;52883;51.094;5.880;2023-03-12T03:25:53;3.84;118.99
66102;HTU21D;52883;51.094;5.880;2023-03-12T03:28:22;3.86;118.99
66102;HTU21D;52883;51.094;5.880;2023-03-12T03:30:52;3.87;118.99
66102;HTU21D;52883;51.094;5.880;2023-03-12T03:33:18;3.85;118.99
66102;HTU21D;52883;51.094;5.880;2023-03-12T03:35:44;3.82;118.99
66102;HTU21D;52883;51.094;5.880;2023-03-12T03:38:16;3.75;118.99
66102;HTU21D;52883;51.094;5.880;2023-03-12T03:40:42;3.70;118.99
66102;HTU21D;52883;51.094;5.880;2023-03-12T03:43:08;3.68;118.99
66102;HTU21D;52883;51.094;5.880;2023-03-12T03:45:34;3.65;118.99
66102;HTU21D;52883;51.094;5.880;2023-03-12T03:48:00;3.60;118.99
66102;HTU21D;52883;51.094;5.880;2023-03-12T03:50:25;3.59;118.99
66102;HTU21D;52883;51.094;5.880;2023-03-12T03:52:51;3.58;118.99
66102;HTU21D;52883;51.094;5.880;2023-03-12T03:55:17;3.58;118.99
66102;HTU21D;52883;51.094;5.880;2023-03-12T03:57:43;3.59;118.99
66102;HTU21D;52883;51.094;5.880;2023-03-12T04:00:09;3.59;118.99
66102;HTU21D;52883;51.094;5.880;2023-03-12T04:02:41;3.61;118.99
66102;HTU21D;52883;51.094;5.880;2023-03-12T04:05:10;3.64;118.99
66102;HTU21D;52883;51.094;5.880;2023-03-12T04:07:35;3.69;118.99
66102;HTU21D;52883;51.094;5.880;2023-03-12T04:10:03;3.72;118.99
66102;HTU21D;52883;51.094;5.880;2023-03-12T04:12:29;3.79;118.99
66102;HTU21D;52883;51.094;5.880;2023-03-12T04:14:55;3.83;118.99
66102;HTU21D;52883;51.094;5.880;2023-03-12T04:17:21;3.88;118.99
66102;HTU21D;52883;51.094;5.880;2023-03-12T04:19:47;3.89;118.99
66102;HTU21D;52883;51.094;5.880;2023-03-12T04:22:13;3.97;118.99
66102;HTU21D;52883;51.094;5.880;2023-03-12T04:24:39;3.99;118.99
66102;HTU21D;52883;51.094;5.880;2023-03-12T04:27:05;4.05;118.99
66102;HTU21D;52883;51.094;5.880;2023-03-12T04:29:32;4.03;118.99
66102;HTU21D;52883;51.094;5.880;2023-03-12T04:31:58;4.06;118.99
66102;HTU21D;52883;51.094;5.880;2023-03-12T04:34:24;4.05;118.99
66102;HTU21D;52883;51.094;5.880;2023-03-12T04:36:51;4.06;118.99
66102;HTU21D;52883;51.094;5.880;2023-03-12T04:39:18;4.08;118.99
66102;HTU21D;52883;51.094;5.880;2023-03-12T04:41:46;4.10;118.99
66102;HTU21D;52883;51.094;5.880;2023-03-12T04:44:14;4.13;118.99
66102;HTU21D;52883;51.094;5.880;2023-03-12T04:46:41;4.18;118.99
66102;HTU21D;52883;51.094;5.880;2023-03-12T04:49:08;4.19;118.99
66102;HTU21D;52883;51.094;5.880;2023-03-12T04:51:35;4.16;118.99
66102;HTU21D;52883;51.094;5.880;2023-03-12T04:54:03;4.14;118.99
66102;HTU21D;52883;51.094;5.880;2023-03-12T04:56:29;4.12;118.99
66102;HTU21D;52883;51.094;5.880;2023-03-12T04:58:54;4.10;118.99
66102;HTU21D;52883;51.094;5.880;2023-03-12T05:01:30;4.13;118.99
66102;HTU21D;52883;51.094;5.880;2023-03-12T05:03:56;4.10;118.99
66102;HTU21D;52883;51.094;5.880;2023-03-12T05:06:23;4.12;118.99
66102;HTU21D;52883;51.094;5.880;2023-03-12T05:08:50;4.10;118.99
66102;HTU21D;52883;51.094;5.880;2023-03-12T05:11:16;4.08;118.99
66102;HTU21D;52883;51.094;5.880;2023-03-12T05:13:42;4.09;118.99
66102;HTU21D;52883;51.094;5.880;2023-03-12T05:16:09;4.07;118.99
66102;HTU21D;52883;51.094;5.880;2023-03-12T05:18:36;4.07;118.99
66102;HTU21D;52883;51.094;5.880;2023-03-12T05:21:12;4.04;118.99
66102;HTU21D;52883;51.094;5.880;2023-03-12T05:23:38;4.03;118.99
66102;HTU21D;52883;51.094;5.880;2023-03-12T05:26:28;4.02;118.99
66102;HTU21D;52883;51.094;5.880;2023-03-12T05:29:03;4.03;118.99
66102;HTU21D;52883;51.094;5.880;2023-03-12T05:31:31;4.08;118.99
66102;HTU21D;52883;51.094;5.880;2023-03-12T05:34:01;4.06;118.99
66102;HTU21D;52883;51.094;5.880;2023-03-12T05:36:27;4.10;118.99
66102;HTU21D;52883;51.094;5.880;2023-03-12T05:38:53;4.14;118.99
66102;HTU21D;52883;51.094;5.880;2023-03-12T05:41:28;4.15;118.99
66102;HTU21D;52883;51.094;5.880;2023-03-12T05:43:58;4.16;118.99
66102;HTU21D;52883;51.094;5.880;2023-03-12T05:46:25;4.17;118.99
66102;HTU21D;52883;51.094;5.880;2023-03-12T05:48:52;4.18;118.99
66102;HTU21D;52883;51.094;5.880;2023-03-12T05:51:18;4.18;118.99
66102;HTU21D;52883;51.094;5.880;2023-03-12T05:53:44;4.18;118.99
66102;HTU21D;52883;51.094;5.880;2023-03-12T05:56:13;4.22;118.99
66102;HTU21D;52883;51.094;5.880;2023-03-12T05:58:39;4.21;118.99
66102;HTU21D;52883;51.094;5.880;2023-03-12T06:01:20;4.19;118.99
66102;HTU21D;52883;51.094;5.880;2023-03-12T06:03:46;4.21;118.99
66102;HTU21D;52883;51.094;5.880;2023-03-12T06:06:13;4.23;118.99
66102;HTU21D;52883;51.094;5.880;2023-03-12T06:08:41;4.26;118.99
66102;HTU21D;52883;51.094;5.880;2023-03-12T06:11:08;4.30;118.99
66102;HTU21D;52883;51.094;5.880;2023-03-12T06:13:33;4.31;118.99
66102;HTU21D;52883;51.094;5.880;2023-03-12T06:16:26;4.32;118.99
66102;HTU21D;52883;51.094;5.880;2023-03-12T06:18:55;4.36;118.99
66102;HTU21D;52883;51.094;5.880;2023-03-12T06:21:25;4.41;118.99
66102;HTU21D;52883;51.094;5.880;2023-03-12T06:23:52;4.44;118.99
66102;HTU21D;52883;51.094;5.880;2023-03-12T06:26:22;4.45;118.99
66102;HTU21D;52883;51.094;5.880;2023-03-12T06:28:49;4.48;118.99
66102;HTU21D;52883;51.094;5.880;2023-03-12T06:31:17;4.51;118.99
66102;HTU21D;52883;51.094;5.880;2023-03-12T06:33:43;4.56;118.99
66102;HTU21D;52883;51.094;5.880;2023-03-12T06:36:09;4.60;118.99
66102;HTU21D;52883;51.094;5.880;2023-03-12T06:38:35;4.63;118.99
66102;HTU21D;52883;51.094;5.880;2023-03-12T06:41:04;4.63;118.99
66102;HTU21D;52883;51.094;5.880;2023-03-12T06:43:32;4.66;118.99
66102;HTU21D;52883;51.094;5.880;2023-03-12T06:45:58;4.67;118.99
66102;HTU21D;52883;51.094;5.880;2023-03-12T06:48:26;4.71;118.99
66102;HTU21D;52883;51.094;5.880;2023-03-12T06:50:51;4.71;118.99
66102;HTU21D;52883;51.094;5.880;2023-03-12T06:53:19;4.73;118.99
66102;HTU21D;52883;51.094;5.880;2023-03-12T06:55:45;4.76;118.99
66102;HTU21D;52883;51.094;5.880;2023-03-12T06:58:11;4.80;118.99
66102;HTU21D;52883;51.094;5.880;2023-03-12T07:00:37;4.90;118.99
66102;HTU21D;52883;51.094;5.880;2023-03-12T07:03:04;4.92;118.99
66102;HTU21D;52883;51.094;5.880;2023-03-12T07:05:29;4.95;118.99
66102;HTU21D;52883;51.094;5.880;2023-03-12T07:07:56;5.01;118.99
66102;HTU21D;52883;51.094;5.880;2023-03-12T07:10:22;5.03;118.99
66102;HTU21D;52883;51.094;5.880;2023-03-12T07:12:48;5.08;118.99
66102;HTU21D;52883;51.094;5.880;2023-03-12T07:15:14;5.09;118.99
66102;HTU21D;52883;51.094;5.880;2023-03-12T07:17:39;5.17;118.99
66102;HTU21D;52883;51.094;5.880;2023-03-12T07:20:06;5.31;118.99
66102;HTU21D;52883;51.094;5.880;2023-03-12T07:22:31;5.39;118.99
66102;HTU21D;52883;51.094;5.880;2023-03-12T07:24:57;5.43;118.99
66102;HTU21D;52883;51.094;5.880;2023-03-12T07:27:23;5.47;118.99
66102;HTU21D;52883;51.094;5.880;2023-03-12T07:29:48;5.53;118.99
66102;HTU21D;52883;51.094;5.880;2023-03-12T07:32:14;5.62;118.99
66102;HTU21D;52883;51.094;5.880;2023-03-12T07:34:40;5.67;118.99
66102;HTU21D;52883;51.094;5.880;2023-03-12T07:37:06;5.75;118.99
66102;HTU21D;52883;51.094;5.880;2023-03-12T07:39:31;5.79;118.99
66102;HTU21D;52883;51.094;5.880;2023-03-12T07:41:57;5.84;118.99
66102;HTU21D;52883;51.094;5.880;2023-03-12T07:44:23;5.86;118.99
66102;HTU21D;52883;51.094;5.880;2023-03-12T07:46:51;5.93;118.99
66102;HTU21D;52883;51.094;5.880;2023-03-12T07:49:17;6.05;118.99
66102;HTU21D;52883;51.094;5.880;2023-03-12T07:51:43;6.10;118.99
66102;HTU21D;52883;51.094;5.880;2023-03-12T07:54:09;6.13;118.99
66102;HTU21D;52883;51.094;5.880;2023-03-12T07:56:34;6.20;118.99
66102;HTU21D;52883;51.094;5.880;2023-03-12T07:59:00;6.23;118.99
66102;HTU21D;52883;51.094;5.880;2023-03-12T08:01:26;6.22;118.99
66102;HTU21D;52883;51.094;5.880;2023-03-12T08:04:00;6.28;118.99
66102;HTU21D;52883;51.094;5.880;2023-03-12T08:06:26;6.36;118.99
66102;HTU21D;52883;51.094;5.880;2023-03-12T08:08:52;6.39;118.99
66102;HTU21D;52883;51.094;5.880;2023-03-12T08:11:18;6.37;118.99
66102;HTU21D;52883;51.094;5.880;2023-03-12T08:13:44;6.45;118.99
66102;HTU21D;52883;51.094;5.880;2023-03-12T08:16:10;6.61;118.99
66102;HTU21D;52883;51.094;5.880;2023-03-12T08:18:36;6.71;118.99
66102;HTU21D;52883;51.094;5.880;2023-03-12T08:21:02;6.80;118.99
66102;HTU21D;52883;51.094;5.880;2023-03-12T08:23:28;6.80;118.99
66102;HTU21D;52883;51.094;5.880;2023-03-12T08:25:54;6.84;118.99
66102;HTU21D;52883;51.094;5.880;2023-03-12T08:28:21;6.84;118.99
66102;HTU21D;52883;51.094;5.880;2023-03-12T08:30:51;6.86;118.99
66102;HTU21D;52883;51.094;5.880;2023-03-12T08:33:18;6.88;118.99
66102;HTU21D;52883;51.094;5.880;2023-03-12T08:35:44;6.93;118.99
66102;HTU21D;52883;51.094;5.880;2023-03-12T08:38:10;7.03;118.99
66102;HTU21D;52883;51.094;5.880;2023-03-12T08:40:36;7.11;118.99
66102;HTU21D;52883;51.094;5.880;2023-03-12T08:43:01;7.10;118.99
66102;HTU21D;52883;51.094;5.880;2023-03-12T08:45:27;7.20;118.99
66102;HTU21D;52883;51.094;5.880;2023-03-12T08:47:53;7.31;118.99
66102;HTU21D;52883;51.094;5.880;2023-03-12T08:50:18;7.41;118.99
66102;HTU21D;52883;51.094;5.880;2023-03-12T08:52:46;7.45;118.99
66102;HTU21D;52883;51.094;5.880;2023-03-12T08:55:12;7.56;118.99
66102;HTU21D;52883;51.094;5.880;2023-03-12T08:57:38;7.46;118.99
66102;HTU21D;52883;51.094;5.880;2023-03-12T09:00:05;7.56;118.99
66102;HTU21D;52883;51.094;5.880;2023-03-12T09:02:36;7.70;118.99
66102;HTU21D;52883;51.094;5.880;2023-03-12T09:05:02;7.76;118.99
66102;HTU21D;52883;51.094;5.880;2023-03-12T09:07:29;7.83;118.99
66102;HTU21D;52883;51.094;5.880;2023-03-12T09:09:55;7.96;118.99
66102;HTU21D;52883;51.094;5.880;2023-03-12T09:12:21;8.01;118.99
66102;HTU21D;52883;51.094;5.880;2023-03-12T09:14:48;8.09;118.99
66102;HTU21D;52883;51.094;5.880;2023-03-12T09:17:14;8.22;118.99
66102;HTU21D;52883;51.094;5.880;2023-03-12T09:20:07;8.32;118.99
66102;HTU21D;52883;51.094;5.880;2023-03-12T09:22:36;8.43;118.99
66102;HTU21D;52883;51.094;5.880;2023-03-12T09:25:03;8.58;118.99
66102;HTU21D;52883;51.094;5.880;2023-03-12T09:27:29;8.59;118.99
66102;HTU21D;52883;51.094;5.880;2023-03-12T09:29:54;8.67;118.99
66102;HTU21D;52883;51.094;5.880;2023-03-12T09:32:20;8.80;118.99
66102;HTU21D;52883;51.094;5.880;2023-03-12T09:34:46;8.91;118.99
66102;HTU21D;52883;51.094;5.880;2023-03-12T09:37:11;9.08;118.99
66102;HTU21D;52883;51.094;5.880;2023-03-12T09:39:37;9.29;118.99
66102;HTU21D;52883;51.094;5.880;2023-03-12T09:42:05;9.44;118.99
66102;HTU21D;52883;51.094;5.880;2023-03-12T09:44:42;9.61;118.99
66102;HTU21D;52883;51.094;5.880;2023-03-12T09:47:29;9.74;118.99
66102;HTU21D;52883;51.094;5.880;2023-03-12T09:50:31;9.79;118.99
66102;HTU21D;52883;51.094;5.880;2023-03-12T09:55:38;9.85;118.99
66102;HTU21D;52883;51.094;5.880;2023-03-12T09:58:35;9.92;118.99
66102;HTU21D;52883;51.094;5.880;2023-03-12T10:05:03;10.08;118.99
66102;HTU21D;52883;51.094;5.880;2023-03-12T10:07:31;10.10;118.99
66102;HTU21D;52883;51.094;5.880;2023-03-12T10:10:27;10.09;118.99
66102;HTU21D;52883;51.094;5.880;2023-03-12T10:13:13;10.13;118.99
66102;HTU21D;52883;51.094;5.880;2023-03-12T10:16:04;10.10;118.99
66102;HTU21D;52883;51.094;5.880;2023-03-12T10:21:40;10.26;118.99
66102;HTU21D;52883;51.094;5.880;2023-03-12T10:26:43;10.81;118.99
66102;HTU21D;52883;51.094;5.880;2023-03-12T10:29:25;11.01;118.99
66102;HTU21D;52883;51.094;5.880;2023-03-12T10:34:54;11.53;118.99
66102;HTU21D;52883;51.094;5.880;2023-03-12T10:37:29;11.66;118.99
66102;HTU21D;52883;51.094;5.880;2023-03-12T10:39:56;11.77;118.99
66102;HTU21D;52883;51.094;5.880;2023-03-12T10:42:26;11.90;118.99
66102;HTU21D;52883;51.094;5.880;2023-03-12T10:45:40;12.10;118.99
66102;HTU21D;52883;51.094;5.880;2023-03-12T10:47:51;12.33;118.99
66102;HTU21D;52883;51.094;5.880;2023-03-12T10:50:30;12.59;118.99
66102;HTU21D;52883;51.094;5.880;2023-03-12T10:53:22;12.82;118.99
66102;HTU21D;52883;51.094;5.880;2023-03-12T10:56:04;12.96;118.99
66102;HTU21D;52883;51.094;5.880;2023-03-12T10:58:35;13.22;118.99
66102;HTU21D;52883;51.094;5.880;2023-03-12T11:01:04;13.46;118.99
66102;HTU21D;52883;51.094;5.880;2023-03-12T11:03:30;13.69;118.99
66102;HTU21D;52883;51.094;5.880;2023-03-12T11:06:29;13.86;118.99
66102;HTU21D;52883;51.094;5.880;2023-03-12T11:09:18;13.70;118.99
66102;HTU21D;52883;51.094;5.880;2023-03-12T11:11:45;13.51;118.99
66102;HTU21D;52883;51.094;5.880;2023-03-12T11:14:19;13.54;118.99
66102;HTU21D;52883;51.094;5.880;2023-03-12T11:16:46;13.52;118.99
66102;HTU21D;52883;51.094;5.880;2023-03-12T11:19:30;13.58;118.99
66102;HTU21D;52883;51.094;5.880;2023-03-12T11:22:03;13.90;118.99
66102;HTU21D;52883;51.094;5.880;2023-03-12T11:24:29;13.99;118.99
66102;HTU21D;52883;51.094;5.880;2023-03-12T11:27:04;13.80;118.99
66102;HTU21D;52883;51.094;5.880;2023-03-12T11:29:38;13.86;118.99
66102;HTU21D;52883;51.094;5.880;2023-03-12T11:32:37;14.12;118.99
66102;HTU21D;52883;51.094;5.880;2023-03-12T11:35:18;14.36;118.99
66102;HTU21D;52883;51.094;5.880;2023-03-12T11:37:54;14.45;118.99
66102;HTU21D;52883;51.094;5.880;2023-03-12T11:43:35;14.52;118.99
66102;HTU21D;52883;51.094;5.880;2023-03-12T11:46:16;14.89;118.99
66102;HTU21D;52883;51.094;5.880;2023-03-12T11:51:30;15.36;118.99
66102;HTU21D;52883;51.094;5.880;2023-03-12T11:57:05;16.51;118.99
66102;HTU21D;52883;51.094;5.880;2023-03-12T11:59:50;16.89;118.99
66102;HTU21D;52883;51.094;5.880;2023-03-12T12:16:18;16.22;118.99
66102;HTU21D;52883;51.094;5.880;2023-03-12T12:27:24;16.02;118.99
66102;HTU21D;52883;51.094;5.880;2023-03-12T12:35:37;14.89;118.99
66102;HTU21D;52883;51.094;5.880;2023-03-12T12:38:17;14.66;118.99
66102;HTU21D;52883;51.094;5.880;2023-03-12T12:41:10;14.67;118.99
66102;HTU21D;52883;51.094;5.880;2023-03-12T12:43:47;14.96;118.99
66102;HTU21D;52883;51.094;5.880;2023-03-12T12:46:18;15.09;118.99
66102;HTU21D;52883;51.094;5.880;2023-03-12T12:49:02;15.37;118.99
66102;HTU21D;52883;51.094;5.880;2023-03-12T12:51:38;15.48;118.99
66102;HTU21D;52883;51.094;5.880;2023-03-12T12:57:10;15.58;118.99
66102;HTU21D;52883;51.094;5.880;2023-03-12T13:02:26;15.71;118.99
66102;HTU21D;52883;51.094;5.880;2023-03-12T13:04:57;15.90;118.99
66102;HTU21D;52883;51.094;5.880;2023-03-12T13:09:50;15.74;118.99
66102;HTU21D;52883;51.094;5.880;2023-03-12T13:12:31;15.48;118.99
66102;HTU21D;52883;51.094;5.880;2023-03-12T13:15:00;15.09;118.99
66102;HTU21D;52883;51.094;5.880;2023-03-12T13:20:31;14.33;118.99
66102;HTU21D;52883;51.094;5.880;2023-03-12T13:23:22;14.11;118.99
66102;HTU21D;52883;51.094;5.880;2023-03-12T13:26:05;14.33;118.99
66102;HTU21D;52883;51.094;5.880;2023-03-12T13:28:36;14.59;118.99
66102;HTU21D;52883;51.094;5.880;2023-03-12T13:33:50;14.68;118.99
66102;HTU21D;52883;51.094;5.880;2023-03-12T13:41:55;15.26;118.99
66102;HTU21D;52883;51.094;5.880;2023-03-12T13:52:17;15.17;118.99
66102;HTU21D;52883;51.094;5.880;2023-03-12T13:54:55;15.10;118.99
66102;HTU21D;52883;51.094;5.880;2023-03-12T14:00:03;15.08;118.99
66102;HTU21D;52883;51.094;5.880;2023-03-12T14:02:37;15.15;118.99
66102;HTU21D;52883;51.094;5.880;2023-03-12T14:05:10;15.39;118.99
66102;HTU21D;52883;51.094;5.880;2023-03-12T14:10:27;15.61;118.99
66102;HTU21D;52883;51.094;5.880;2023-03-12T14:13:09;15.58;118.99
66102;HTU21D;52883;51.094;5.880;2023-03-12T14:15:55;15.71;118.99
66102;HTU21D;52883;51.094;5.880;2023-03-12T14:19:01;16.14;118.99
66102;HTU21D;52883;51.094;5.880;2023-03-12T14:21:34;16.32;118.99
66102;HTU21D;52883;51.094;5.880;2023-03-12T14:24:01;16.36;118.99
66102;HTU21D;52883;51.094;5.880;2023-03-12T14:26:31;16.37;118.99
66102;HTU21D;52883;51.094;5.880;2023-03-12T14:29:30;16.41;118.99
66102;HTU21D;52883;51.094;5.880;2023-03-12T14:32:12;16.15;118.99
66102;HTU21D;52883;51.094;5.880;2023-03-12T14:34:50;15.91;118.99
66102;HTU21D;52883;51.094;5.880;2023-03-12T14:37:21;15.98;118.99
66102;HTU21D;52883;51.094;5.880;2023-03-12T14:39:53;16.12;118.99
66102;HTU21D;52883;51.094;5.880;2023-03-12T14:42:31;16.08;118.99
66102;HTU21D;52883;51.094;5.880;2023-03-12T14:47:41;15.80;118.99
66102;HTU21D;52883;51.094;5.880;2023-03-12T14:50:27;15.70;118.99
66102;HTU21D;52883;51.094;5.880;2023-03-12T14:52:55;15.41;118.99
66102;HTU21D;52883;51.094;5.880;2023-03-12T14:55:24;15.21;118.99
66102;HTU21D;52883;51.094;5.880;2023-03-12T14:58:05;15.12;118.99
66102;HTU21D;52883;51.094;5.880;2023-03-12T15:00:37;14.85;118.99
66102;HTU21D;52883;51.094;5.880;2023-03-12T15:03:11;14.64;118.99
66102;HTU21D;52883;51.094;5.880;2023-03-12T15:05:46;14.47;118.99
66102;HTU21D;52883;51.094;5.880;2023-03-12T15:08:13;14.25;118.99
66102;HTU21D;52883;51.094;5.880;2023-03-12T15:10:49;14.17;118.99
66102;HTU21D;52883;51.094;5.880;2023-03-12T15:13:17;14.00;118.99
66102;HTU21D;52883;51.094;5.880;2023-03-12T15:15:50;13.89;118.99
66102;HTU21D;52883;51.094;5.880;2023-03-12T15:18:30;13.89;118.99
66102;HTU21D;52883;51.094;5.880;2023-03-12T15:20:59;13.94;118.99
66102;HTU21D;52883;51.094;5.880;2023-03-12T15:23:29;13.93;118.99
66102;HTU21D;52883;51.094;5.880;2023-03-12T15:26:32;13.83;118.99
66102;HTU21D;52883;51.094;5.880;2023-03-12T15:29:02;13.78;118.99
66102;HTU21D;52883;51.094;5.880;2023-03-12T15:31:43;13.70;118.99
66102;HTU21D;52883;51.094;5.880;2023-03-12T15:34:11;13.67;118.99
66102;HTU21D;52883;51.094;5.880;2023-03-12T15:36:46;13.70;118.99
66102;HTU21D;52883;51.094;5.880;2023-03-12T15:39:25;13.71;118.99
66102;HTU21D;52883;51.094;5.880;2023-03-12T15:41:51;13.70;118.99
66102;HTU21D;52883;51.094;5.880;2023-03-12T15:44:27;13.66;118.99
66102;HTU21D;52883;51.094;5.880;2023-03-12T15:47:02;13.60;118.99
66102;HTU21D;52883;51.094;5.880;2023-03-12T15:49:33;13.51;118.99
66102;HTU21D;52883;51.094;5.880;2023-03-12T15:52:04;13.45;118.99
66102;HTU21D;52883;51.094;5.880;2023-03-12T15:54:30;13.33;118.99
66102;HTU21D;52883;51.094;5.880;2023-03-12T16:00:22;13.16;118.99
66102;HTU21D;52883;51.094;5.880;2023-03-12T16:02:58;13.14;118.99
66102;HTU21D;52883;51.094;5.880;2023-03-12T16:05:33;13.10;118.99
66102;HTU21D;52883;51.094;5.880;2023-03-12T16:08:21;13.08;118.99
66102;HTU21D;52883;51.094;5.880;2023-03-12T16:10:50;13.05;118.99
66102;HTU21D;52883;51.094;5.880;2023-03-12T16:13:18;12.96;118.99
66102;HTU21D;52883;51.094;5.880;2023-03-12T16:15:45;12.85;118.99
66102;HTU21D;52883;51.094;5.880;2023-03-12T16:18:18;12.74;118.99
66102;HTU21D;52883;51.094;5.880;2023-03-12T16:20:44;12.62;118.99
66102;HTU21D;52883;51.094;5.880;2023-03-12T16:23:11;12.56;118.99
66102;HTU21D;52883;51.094;5.880;2023-03-12T16:25:50;12.43;118.99
66102;HTU21D;52883;51.094;5.880;2023-03-12T16:28:19;12.32;118.99
66102;HTU21D;52883;51.094;5.880;2023-03-12T16:30:45;12.25;118.99
66102;HTU21D;52883;51.094;5.880;2023-03-12T16:33:14;12.16;118.99
66102;HTU21D;52883;51.094;5.880;2023-03-12T16:35:40;12.16;118.99
66102;HTU21D;52883;51.094;5.880;2023-03-12T16:38:06;12.13;118.99
66102;HTU21D;52883;51.094;5.880;2023-03-12T16:40:34;12.15;118.99
66102;HTU21D;52883;51.094;5.880;2023-03-12T16:43:03;12.19;118.99
66102;HTU21D;52883;51.094;5.880;2023-03-12T16:45:35;12.19;118.99
66102;HTU21D;52883;51.094;5.880;2023-03-12T16:48:04;12.21;118.99
66102;HTU21D;52883;51.094;5.880;2023-03-12T16:50:29;12.22;118.99
66102;HTU21D;52883;51.094;5.880;2023-03-12T16:52:56;12.17;118.99
66102;HTU21D;52883;51.094;5.880;2023-03-12T16:55:25;12.15;118.99
66102;HTU21D;52883;51.094;5.880;2023-03-12T16:58:01;12.13;118.99
66102;HTU21D;52883;51.094;5.880;2023-03-12T17:00:29;12.10;118.99
66102;HTU21D;52883;51.094;5.880;2023-03-12T17:02:56;12.08;118.99